sensor_id;sensor_type;location;lat;lon;timestamp;temperature;humidity
37268;DHT22;23154;52.542;13.362;2022-09-09T00:01:23;15.10;99.90
37268;DHT22;23154;52.542;13.362;2022-09-09T00:07:03;14.80;99.90
37268;DHT22;23154;52.542;13.362;2022-09-09T00:09:44;14.90;99.90
37268;DHT22;23154;52.542;13.362;2022-09-09T00:14:43;15.30;99.90
37268;DHT22;23154;52.542;13.362;2022-09-09T00:17:14;15.30;99.90
37268;DHT22;23154;52.542;13.362;2022-09-09T00:20:12;15.20;99.90
37268;DHT22;23154;52.542;13.362;2022-09-09T00:22:47;15.10;99.90
37268;DHT22;23154;52.542;13.362;2022-09-09T00:25:23;15.00;99.90
37268;DHT22;23154;52.542;13.362;2022-09-09T00:27:49;15.00;99.90
37268;DHT22;23154;52.542;13.362;2022-09-09T00:30:18;14.90;99.90
37268;DHT22;23154;52.542;13.362;2022-09-09T00:32:55;15.00;99.90
37268;DHT22;23154;52.542;13.362;2022-09-09T00:35:36;15.00;99.90
37268;DHT22;23154;52.542;13.362;2022-09-09T00:40:52;15.00;99.90
37268;DHT22;23154;52.542;13.362;2022-09-09T00:43:28;15.20;99.90
37268;DHT22;23154;52.542;13.362;2022-09-09T00:49:19;14.90;99.90
37268;DHT22;23154;52.542;13.362;2022-09-09T00:55:03;15.00;99.90
37268;DHT22;23154;52.542;13.362;2022-09-09T00:57:33;15.00;99.90
37268;DHT22;23154;52.542;13.362;2022-09-09T01:05:46;14.80;99.90
37268;DHT22;23154;52.542;13.362;2022-09-09T01:11:04;14.60;99.90
37268;DHT22;23154;52.542;13.362;2022-09-09T01:13:33;14.60;99.90
37268;DHT22;23154;52.542;13.362;2022-09-09T01:16:00;14.60;99.90
37268;DHT22;23154;52.542;13.362;2022-09-09T01:18:40;14.60;99.90
37268;DHT22;23154;52.542;13.362;2022-09-09T01:21:34;14.60;99.90
37268;DHT22;23154;52.542;13.362;2022-09-09T01:24:27;14.70;99.90
37268;DHT22;23154;52.542;13.362;2022-09-09T01:27:01;14.60;99.90
37268;DHT22;23154;52.542;13.362;2022-09-09T01:29:28;14.70;99.90
37268;DHT22;23154;52.542;13.362;2022-09-09T01:32:37;14.50;99.90
37268;DHT22;23154;52.542;13.362;2022-09-09T01:35:03;14.50;99.90
37268;DHT22;23154;52.542;13.362;2022-09-09T01:37:29;14.50;99.90
37268;DHT22;23154;52.542;13.362;2022-09-09T01:39:54;14.50;99.90
37268;DHT22;23154;52.542;13.362;2022-09-09T01:42:20;14.50;99.90
37268;DHT22;23154;52.542;13.362;2022-09-09T01:44:46;14.50;99.90
37268;DHT22;23154;52.542;13.362;2022-09-09T01:47:11;14.40;99.90
37268;DHT22;23154;52.542;13.362;2022-09-09T01:49:37;14.40;99.90
37268;DHT22;23154;52.542;13.362;2022-09-09T01:52:02;14.40;99.90
37268;DHT22;23154;52.542;13.362;2022-09-09T01:54:31;14.50;99.90
37268;DHT22;23154;52.542;13.362;2022-09-09T02:00:10;14.30;99.90
37268;DHT22;23154;52.542;13.362;2022-09-09T02:02:44;14.30;99.90
37268;DHT22;23154;52.542;13.362;2022-09-09T02:05:35;14.30;99.90
37268;DHT22;23154;52.542;13.362;2022-09-09T02:08:11;14.20;99.90
37268;DHT22;23154;52.542;13.362;2022-09-09T02:10:56;14.20;99.90
37268;DHT22;23154;52.542;13.362;2022-09-09T02:13:23;14.10;99.90
37268;DHT22;23154;52.542;13.362;2022-09-09T02:15:59;14.10;99.90
37268;DHT22;23154;52.542;13.362;2022-09-09T02:18:35;14.20;99.90
37268;DHT22;23154;52.542;13.362;2022-09-09T02:21:02;14.30;99.90
37268;DHT22;23154;52.542;13.362;2022-09-09T02:23:28;14.30;99.90
37268;DHT22;23154;52.542;13.362;2022-09-09T02:25:56;14.20;99.90
37268;DHT22;23154;52.542;13.362;2022-09-09T02:28:25;14.20;99.90
37268;DHT22;23154;52.542;13.362;2022-09-09T02:30:53;14.20;99.90
37268;DHT22;23154;52.542;13.362;2022-09-09T02:33:23;14.20;99.90
37268;DHT22;23154;52.542;13.362;2022-09-09T02:35:51;14.30;99.90
37268;DHT22;23154;52.542;13.362;2022-09-09T02:38:19;14.30;99.90
37268;DHT22;23154;52.542;13.362;2022-09-09T02:40:46;14.10;99.90
37268;DHT22;23154;52.542;13.362;2022-09-09T02:43:14;14.20;99.90
37268;DHT22;23154;52.542;13.362;2022-09-09T02:45:49;14.20;99.90
37268;DHT22;23154;52.542;13.362;2022-09-09T02:48:26;14.30;99.90
37268;DHT22;23154;52.542;13.362;2022-09-09T02:53:53;14.30;99.90
37268;DHT22;23154;52.542;13.362;2022-09-09T02:56:21;14.30;99.90
37268;DHT22;23154;52.542;13.362;2022-09-09T02:58:49;14.40;99.90
37268;DHT22;23154;52.542;13.362;2022-09-09T03:01:17;14.30;99.90
37268;DHT22;23154;52.542;13.362;2022-09-09T03:03:43;14.30;99.90
37268;DHT22;23154;52.542;13.362;2022-09-09T03:06:09;14.20;99.90
37268;DHT22;23154;52.542;13.362;2022-09-09T03:08:37;14.20;99.90
37268;DHT22;23154;52.542;13.362;2022-09-09T03:11:03;14.30;99.90
37268;DHT22;23154;52.542;13.362;2022-09-09T03:13:28;14.30;99.90
37268;DHT22;23154;52.542;13.362;2022-09-09T03:15:54;14.40;99.90
37268;DHT22;23154;52.542;13.362;2022-09-09T03:18:20;14.50;99.90
37268;DHT22;23154;52.542;13.362;2022-09-09T03:20:46;14.30;99.90
37268;DHT22;23154;52.542;13.362;2022-09-09T03:23:14;14.00;99.90
37268;DHT22;23154;52.542;13.362;2022-09-09T03:25:39;14.00;99.90
37268;DHT22;23154;52.542;13.362;2022-09-09T03:28:05;14.10;99.90
37268;DHT22;23154;52.542;13.362;2022-09-09T03:30:30;14.10;99.90
37268;DHT22;23154;52.542;13.362;2022-09-09T03:32:56;14.10;99.90
37268;DHT22;23154;52.542;13.362;2022-09-09T03:35:22;14.30;99.90
37268;DHT22;23154;52.542;13.362;2022-09-09T03:37:48;14.20;99.90
37268;DHT22;23154;52.542;13.362;2022-09-09T03:40:14;14.30;99.90
37268;DHT22;23154;52.542;13.362;2022-09-09T03:42:40;14.30;99.90
37268;DHT22;23154;52.542;13.362;2022-09-09T03:45:08;14.30;99.90
37268;DHT22;23154;52.542;13.362;2022-09-09T03:47:34;14.10;99.90
37268;DHT22;23154;52.542;13.362;2022-09-09T03:50:00;14.10;99.90
37268;DHT22;23154;52.542;13.362;2022-09-09T03:52:26;14.00;99.90
37268;DHT22;23154;52.542;13.362;2022-09-09T03:54:53;14.00;99.90
37268;DHT22;23154;52.542;13.362;2022-09-09T03:57:19;13.90;99.90
37268;DHT22;23154;52.542;13.362;2022-09-09T03:59:45;13.90;99.90
37268;DHT22;23154;52.542;13.362;2022-09-09T04:02:11;13.70;99.90
37268;DHT22;23154;52.542;13.362;2022-09-09T04:04:36;13.80;99.90
37268;DHT22;23154;52.542;13.362;2022-09-09T04:07:02;13.80;99.90
37268;DHT22;23154;52.542;13.362;2022-09-09T04:09:28;13.60;99.90
37268;DHT22;23154;52.542;13.362;2022-09-09T04:11:53;13.70;99.90
37268;DHT22;23154;52.542;13.362;2022-09-09T04:14:20;13.80;99.90
37268;DHT22;23154;52.542;13.362;2022-09-09T04:16:46;13.80;99.90
37268;DHT22;23154;52.542;13.362;2022-09-09T04:19:12;14.10;99.90
37268;DHT22;23154;52.542;13.362;2022-09-09T04:21:40;14.00;99.90
37268;DHT22;23154;52.542;13.362;2022-09-09T04:24:07;13.90;99.90
37268;DHT22;23154;52.542;13.362;2022-09-09T04:26:33;13.80;99.90
37268;DHT22;23154;52.542;13.362;2022-09-09T04:28:59;13.80;99.90
37268;DHT22;23154;52.542;13.362;2022-09-09T04:31:24;13.90;99.90
37268;DHT22;23154;52.542;13.362;2022-09-09T04:33:51;13.90;99.90
37268;DHT22;23154;52.542;13.362;2022-09-09T04:36:17;13.90;99.90
37268;DHT22;23154;52.542;13.362;2022-09-09T04:38:46;14.10;99.90
37268;DHT22;23154;52.542;13.362;2022-09-09T04:41:14;14.10;99.90
37268;DHT22;23154;52.542;13.362;2022-09-09T04:43:42;14.00;99.90
37268;DHT22;23154;52.542;13.362;2022-09-09T04:46:08;13.90;99.90
37268;DHT22;23154;52.542;13.362;2022-09-09T04:48:33;13.90;99.90
37268;DHT22;23154;52.542;13.362;2022-09-09T04:51:05;13.90;99.90
37268;DHT22;23154;52.542;13.362;2022-09-09T04:53:31;14.00;99.90
37268;DHT22;23154;52.542;13.362;2022-09-09T04:56:05;13.90;99.90
37268;DHT22;23154;52.542;13.362;2022-09-09T04:58:32;14.00;99.90
37268;DHT22;23154;52.542;13.362;2022-09-09T05:01:19;13.90;99.90
37268;DHT22;23154;52.542;13.362;2022-09-09T05:03:45;14.00;99.90
37268;DHT22;23154;52.542;13.362;2022-09-09T05:06:13;14.00;99.90
37268;DHT22;23154;52.542;13.362;2022-09-09T05:08:40;14.20;99.90
37268;DHT22;23154;52.542;13.362;2022-09-09T05:11:23;14.20;99.90
37268;DHT22;23154;52.542;13.362;2022-09-09T05:13:49;14.10;99.90
37268;DHT22;23154;52.542;13.362;2022-09-09T05:16:16;14.10;99.90
37268;DHT22;23154;52.542;13.362;2022-09-09T05:18:42;14.30;99.90
37268;DHT22;23154;52.542;13.362;2022-09-09T05:21:09;14.30;99.90
37268;DHT22;23154;52.542;13.362;2022-09-09T05:23:35;14.40;99.90
37268;DHT22;23154;52.542;13.362;2022-09-09T05:26:01;14.40;99.90
37268;DHT22;23154;52.542;13.362;2022-09-09T05:28:28;14.40;99.90
37268;DHT22;23154;52.542;13.362;2022-09-09T05:30:58;14.40;99.90
37268;DHT22;23154;52.542;13.362;2022-09-09T05:33:25;14.60;99.90
37268;DHT22;23154;52.542;13.362;2022-09-09T05:36:04;14.70;99.90
37268;DHT22;23154;52.542;13.362;2022-09-09T05:38:31;14.70;99.90
37268;DHT22;23154;52.542;13.362;2022-09-09T05:41:02;14.70;99.90
37268;DHT22;23154;52.542;13.362;2022-09-09T05:43:28;14.80;99.90
37268;DHT22;23154;52.542;13.362;2022-09-09T05:46:08;14.80;99.90
37268;DHT22;23154;52.542;13.362;2022-09-09T05:48:37;14.80;99.90
37268;DHT22;23154;52.542;13.362;2022-09-09T05:51:04;14.80;99.90
37268;DHT22;23154;52.542;13.362;2022-09-09T05:53:30;14.80;99.90
37268;DHT22;23154;52.542;13.362;2022-09-09T05:58:31;14.80;99.90
37268;DHT22;23154;52.542;13.362;2022-09-09T06:01:13;14.90;99.90
37268;DHT22;23154;52.542;13.362;2022-09-09T06:03:40;15.00;99.90
37268;DHT22;23154;52.542;13.362;2022-09-09T06:06:08;15.00;99.90
37268;DHT22;23154;52.542;13.362;2022-09-09T06:08:37;15.00;99.90
37268;DHT22;23154;52.542;13.362;2022-09-09T06:11:12;15.10;99.90
37268;DHT22;23154;52.542;13.362;2022-09-09T06:13:38;15.10;99.90
37268;DHT22;23154;52.542;13.362;2022-09-09T06:16:09;15.10;99.90
37268;DHT22;23154;52.542;13.362;2022-09-09T06:18:37;15.10;99.90
37268;DHT22;23154;52.542;13.362;2022-09-09T06:21:04;15.10;99.90
37268;DHT22;23154;52.542;13.362;2022-09-09T06:23:32;15.30;99.90
37268;DHT22;23154;52.542;13.362;2022-09-09T06:28:28;15.40;99.90
37268;DHT22;23154;52.542;13.362;2022-09-09T06:31:01;15.40;99.90
37268;DHT22;23154;52.542;13.362;2022-09-09T06:33:32;15.50;99.90
37268;DHT22;23154;52.542;13.362;2022-09-09T06:36:00;15.50;99.90
37268;DHT22;23154;52.542;13.362;2022-09-09T06:38:26;15.70;99.90
37268;DHT22;23154;52.542;13.362;2022-09-09T06:40:53;15.80;99.90
37268;DHT22;23154;52.542;13.362;2022-09-09T06:43:24;15.80;99.90
37268;DHT22;23154;52.542;13.362;2022-09-09T06:45:57;15.80;99.90
37268;DHT22;23154;52.542;13.362;2022-09-09T06:48:23;15.80;99.90
37268;DHT22;23154;52.542;13.362;2022-09-09T06:51:00;15.80;99.90
37268;DHT22;23154;52.542;13.362;2022-09-09T06:53:27;15.80;99.90
37268;DHT22;23154;52.542;13.362;2022-09-09T06:55:52;15.80;99.90
37268;DHT22;23154;52.542;13.362;2022-09-09T06:58:18;15.90;99.90
37268;DHT22;23154;52.542;13.362;2022-09-09T07:00:43;15.90;99.90
37268;DHT22;23154;52.542;13.362;2022-09-09T07:03:10;16.00;99.90
37268;DHT22;23154;52.542;13.362;2022-09-09T07:05:36;16.10;99.90
37268;DHT22;23154;52.542;13.362;2022-09-09T07:08:02;16.30;99.90
37268;DHT22;23154;52.542;13.362;2022-09-09T07:10:28;16.70;99.90
37268;DHT22;23154;52.542;13.362;2022-09-09T07:12:53;16.80;99.90
37268;DHT22;23154;52.542;13.362;2022-09-09T07:15:19;17.00;99.90
37268;DHT22;23154;52.542;13.362;2022-09-09T07:17:44;17.00;99.90
37268;DHT22;23154;52.542;13.362;2022-09-09T07:20:11;17.00;99.90
37268;DHT22;23154;52.542;13.362;2022-09-09T07:22:36;17.00;99.90
37268;DHT22;23154;52.542;13.362;2022-09-09T07:25:03;17.10;99.90
37268;DHT22;23154;52.542;13.362;2022-09-09T07:27:28;17.30;99.90
37268;DHT22;23154;52.542;13.362;2022-09-09T07:29:55;17.50;99.90
37268;DHT22;23154;52.542;13.362;2022-09-09T07:32:20;17.50;99.90
37268;DHT22;23154;52.542;13.362;2022-09-09T07:34:46;17.60;99.90
37268;DHT22;23154;52.542;13.362;2022-09-09T07:37:12;17.70;99.90
37268;DHT22;23154;52.542;13.362;2022-09-09T07:39:39;18.00;99.90
37268;DHT22;23154;52.542;13.362;2022-09-09T07:42:05;18.20;99.90
37268;DHT22;23154;52.542;13.362;2022-09-09T07:44:31;18.30;99.90
37268;DHT22;23154;52.542;13.362;2022-09-09T07:47:00;18.50;99.90
37268;DHT22;23154;52.542;13.362;2022-09-09T07:49:26;18.70;99.90
37268;DHT22;23154;52.542;13.362;2022-09-09T07:51:51;19.00;99.90
37268;DHT22;23154;52.542;13.362;2022-09-09T07:54:18;19.30;99.90
37268;DHT22;23154;52.542;13.362;2022-09-09T07:56:49;19.20;99.90
37268;DHT22;23154;52.542;13.362;2022-09-09T07:59:15;19.10;99.90
37268;DHT22;23154;52.542;13.362;2022-09-09T08:01:43;19.30;99.90
37268;DHT22;23154;52.542;13.362;2022-09-09T08:04:11;19.20;99.90
37268;DHT22;23154;52.542;13.362;2022-09-09T08:06:46;19.30;99.90
37268;DHT22;23154;52.542;13.362;2022-09-09T08:09:12;19.50;99.90
37268;DHT22;23154;52.542;13.362;2022-09-09T08:11:39;19.40;99.90
37268;DHT22;23154;52.542;13.362;2022-09-09T08:14:10;19.40;99.90
37268;DHT22;23154;52.542;13.362;2022-09-09T08:16:39;19.50;99.90
37268;DHT22;23154;52.542;13.362;2022-09-09T08:19:05;19.50;99.90
37268;DHT22;23154;52.542;13.362;2022-09-09T08:21:33;19.60;99.90
37268;DHT22;23154;52.542;13.362;2022-09-09T08:24:00;19.70;99.90
37268;DHT22;23154;52.542;13.362;2022-09-09T08:26:31;19.60;99.90
37268;DHT22;23154;52.542;13.362;2022-09-09T08:28:59;19.60;99.90
37268;DHT22;23154;52.542;13.362;2022-09-09T08:31:29;19.80;99.90
37268;DHT22;23154;52.542;13.362;2022-09-09T08:33:56;19.60;99.90
37268;DHT22;23154;52.542;13.362;2022-09-09T08:36:26;19.50;99.90
37268;DHT22;23154;52.542;13.362;2022-09-09T08:38:54;19.60;99.90
37268;DHT22;23154;52.542;13.362;2022-09-09T08:55:54;19.50;99.90
37268;DHT22;23154;52.542;13.362;2022-09-09T08:58:33;19.40;99.90
37268;DHT22;23154;52.542;13.362;2022-09-09T09:11:38;19.70;99.90
37268;DHT22;23154;52.542;13.362;2022-09-09T09:14:18;19.70;99.90
37268;DHT22;23154;52.542;13.362;2022-09-09T09:17:00;20.10;99.90
37268;DHT22;23154;52.542;13.362;2022-09-09T09:19:27;20.00;99.90
37268;DHT22;23154;52.542;13.362;2022-09-09T09:27:27;20.60;99.90
37268;DHT22;23154;52.542;13.362;2022-09-09T09:29:57;20.60;99.90
37268;DHT22;23154;52.542;13.362;2022-09-09T09:32:24;21.00;99.90
37268;DHT22;23154;52.542;13.362;2022-09-09T09:34:56;21.10;99.90
37268;DHT22;23154;52.542;13.362;2022-09-09T09:37:32;21.10;99.90
37268;DHT22;23154;52.542;13.362;2022-09-09T09:40:15;21.10;99.90
37268;DHT22;23154;52.542;13.362;2022-09-09T09:42:53;21.20;99.90
37268;DHT22;23154;52.542;13.362;2022-09-09T09:45:42;21.20;99.90
37268;DHT22;23154;52.542;13.362;2022-09-09T09:48:13;21.40;99.90
37268;DHT22;23154;52.542;13.362;2022-09-09T09:50:51;21.30;99.90
37268;DHT22;23154;52.542;13.362;2022-09-09T09:53:30;21.60;99.90
37268;DHT22;23154;52.542;13.362;2022-09-09T09:56:01;21.50;99.90
37268;DHT22;23154;52.542;13.362;2022-09-09T09:58:30;21.20;99.90
37268;DHT22;23154;52.542;13.362;2022-09-09T10:00:59;21.20;99.90
37268;DHT22;23154;52.542;13.362;2022-09-09T10:03:30;21.20;99.90
37268;DHT22;23154;52.542;13.362;2022-09-09T10:05:56;21.60;99.90
37268;DHT22;23154;52.542;13.362;2022-09-09T10:08:26;21.60;99.90
37268;DHT22;23154;52.542;13.362;2022-09-09T10:19:34;21.10;99.90
37268;DHT22;23154;52.542;13.362;2022-09-09T10:22:22;21.50;99.90
37268;DHT22;23154;52.542;13.362;2022-09-09T10:28:17;21.80;99.90
37268;DHT22;23154;52.542;13.362;2022-09-09T10:33:49;21.70;99.90
37268;DHT22;23154;52.542;13.362;2022-09-09T10:36:25;21.90;99.90
37268;DHT22;23154;52.542;13.362;2022-09-09T10:39:03;21.80;99.90
37268;DHT22;23154;52.542;13.362;2022-09-09T10:47:15;22.00;99.90
37268;DHT22;23154;52.542;13.362;2022-09-09T10:55:18;21.90;99.90
37268;DHT22;23154;52.542;13.362;2022-09-09T10:57:46;22.00;99.90
37268;DHT22;23154;52.542;13.362;2022-09-09T11:01:02;22.30;99.90
37268;DHT22;23154;52.542;13.362;2022-09-09T11:03:03;22.20;99.90
37268;DHT22;23154;52.542;13.362;2022-09-09T11:05:41;22.60;99.90
37268;DHT22;23154;52.542;13.362;2022-09-09T11:08:12;22.80;99.90
37268;DHT22;23154;52.542;13.362;2022-09-09T11:14:45;22.50;99.90
37268;DHT22;23154;52.542;13.362;2022-09-09T11:16:52;22.50;99.90
37268;DHT22;23154;52.542;13.362;2022-09-09T11:19:26;22.60;99.90
37268;DHT22;23154;52.542;13.362;2022-09-09T11:21:54;22.50;99.90
37268;DHT22;23154;52.542;13.362;2022-09-09T11:26:58;22.40;99.90
37268;DHT22;23154;52.542;13.362;2022-09-09T11:33:04;22.80;99.90
37268;DHT22;23154;52.542;13.362;2022-09-09T11:41:07;22.90;99.90
37268;DHT22;23154;52.542;13.362;2022-09-09T11:43:45;23.20;99.90
37268;DHT22;23154;52.542;13.362;2022-09-09T11:46:14;23.20;99.90
37268;DHT22;23154;52.542;13.362;2022-09-09T11:48:59;23.20;99.90
37268;DHT22;23154;52.542;13.362;2022-09-09T11:51:28;23.60;99.90
37268;DHT22;23154;52.542;13.362;2022-09-09T11:53:56;23.60;99.90
37268;DHT22;23154;52.542;13.362;2022-09-09T11:59:28;23.80;99.90
37268;DHT22;23154;52.542;13.362;2022-09-09T12:07:04;23.90;99.90
37268;DHT22;23154;52.542;13.362;2022-09-09T12:09:50;23.80;99.90
37268;DHT22;23154;52.542;13.362;2022-09-09T12:17:52;23.60;99.90
37268;DHT22;23154;52.542;13.362;2022-09-09T12:20:34;23.60;99.90
37268;DHT22;23154;52.542;13.362;2022-09-09T12:26:07;23.60;99.90
37268;DHT22;23154;52.542;13.362;2022-09-09T12:29:01;23.70;99.90
37268;DHT22;23154;52.542;13.362;2022-09-09T12:31:40;23.80;99.90
37268;DHT22;23154;52.542;13.362;2022-09-09T12:34:16;23.80;99.90
37268;DHT22;23154;52.542;13.362;2022-09-09T12:36:44;23.70;99.90
37268;DHT22;23154;52.542;13.362;2022-09-09T12:41:57;23.90;99.90
37268;DHT22;23154;52.542;13.362;2022-09-09T12:44:24;23.80;99.90
37268;DHT22;23154;52.542;13.362;2022-09-09T12:46:51;23.80;99.90
37268;DHT22;23154;52.542;13.362;2022-09-09T12:49:34;23.80;99.90
37268;DHT22;23154;52.542;13.362;2022-09-09T12:52:03;23.50;99.90
37268;DHT22;23154;52.542;13.362;2022-09-09T12:54:31;23.40;99.90
37268;DHT22;23154;52.542;13.362;2022-09-09T12:56:57;23.30;99.90
37268;DHT22;23154;52.542;13.362;2022-09-09T12:59:25;23.30;99.90
37268;DHT22;23154;52.542;13.362;2022-09-09T13:01:56;23.30;99.90
37268;DHT22;23154;52.542;13.362;2022-09-09T13:04:22;23.20;99.90
37268;DHT22;23154;52.542;13.362;2022-09-09T13:06:48;23.40;99.90
37268;DHT22;23154;52.542;13.362;2022-09-09T13:09:14;23.40;99.90
37268;DHT22;23154;52.542;13.362;2022-09-09T13:11:49;23.50;99.90
37268;DHT22;23154;52.542;13.362;2022-09-09T13:14:31;23.10;99.90
37268;DHT22;23154;52.542;13.362;2022-09-09T13:17:02;23.20;99.90
37268;DHT22;23154;52.542;13.362;2022-09-09T13:19:38;23.20;99.90
37268;DHT22;23154;52.542;13.362;2022-09-09T13:22:19;23.30;99.90
37268;DHT22;23154;52.542;13.362;2022-09-09T13:24:45;23.50;99.90
37268;DHT22;23154;52.542;13.362;2022-09-09T13:27:32;23.10;99.90
37268;DHT22;23154;52.542;13.362;2022-09-09T13:29:59;23.10;99.90
37268;DHT22;23154;52.542;13.362;2022-09-09T13:32:26;23.10;99.90
37268;DHT22;23154;52.542;13.362;2022-09-09T13:34:55;23.10;99.90
37268;DHT22;23154;52.542;13.362;2022-09-09T13:37:44;23.20;99.90
37268;DHT22;23154;52.542;13.362;2022-09-09T13:40:20;22.90;99.90
37268;DHT22;23154;52.542;13.362;2022-09-09T13:42:47;22.80;99.90
37268;DHT22;23154;52.542;13.362;2022-09-09T13:45:20;22.80;99.90
37268;DHT22;23154;52.542;13.362;2022-09-09T13:47:46;22.70;99.90
37268;DHT22;23154;52.542;13.362;2022-09-09T13:52:53;23.00;99.90
37268;DHT22;23154;52.542;13.362;2022-09-09T13:55:21;23.30;99.90
37268;DHT22;23154;52.542;13.362;2022-09-09T13:57:54;23.80;99.90
37268;DHT22;23154;52.542;13.362;2022-09-09T14:00:22;24.10;99.90
37268;DHT22;23154;52.542;13.362;2022-09-09T14:02:48;23.90;99.90
37268;DHT22;23154;52.542;13.362;2022-09-09T14:05:14;23.80;99.90
37268;DHT22;23154;52.542;13.362;2022-09-09T14:07:42;23.80;99.90
37268;DHT22;23154;52.542;13.362;2022-09-09T14:10:09;24.10;99.90
37268;DHT22;23154;52.542;13.362;2022-09-09T14:12:34;24.00;99.90
37268;DHT22;23154;52.542;13.362;2022-09-09T14:15:02;24.00;99.90
37268;DHT22;23154;52.542;13.362;2022-09-09T14:17:28;24.10;99.90
37268;DHT22;23154;52.542;13.362;2022-09-09T14:19:57;24.30;99.90
37268;DHT22;23154;52.542;13.362;2022-09-09T14:22:23;24.40;99.90
37268;DHT22;23154;52.542;13.362;2022-09-09T14:24:49;24.40;99.90
37268;DHT22;23154;52.542;13.362;2022-09-09T14:27:16;24.30;99.90
37268;DHT22;23154;52.542;13.362;2022-09-09T14:29:43;23.90;99.90
37268;DHT22;23154;52.542;13.362;2022-09-09T14:32:09;23.80;99.90
37268;DHT22;23154;52.542;13.362;2022-09-09T14:34:35;23.70;99.90
37268;DHT22;23154;52.542;13.362;2022-09-09T14:37:00;23.60;99.90
37268;DHT22;23154;52.542;13.362;2022-09-09T14:39:26;23.50;99.90
37268;DHT22;23154;52.542;13.362;2022-09-09T14:41:52;23.40;99.90
37268;DHT22;23154;52.542;13.362;2022-09-09T14:44:17;23.80;99.90
37268;DHT22;23154;52.542;13.362;2022-09-09T14:46:44;24.20;99.90
37268;DHT22;23154;52.542;13.362;2022-09-09T14:49:09;24.30;99.90
37268;DHT22;23154;52.542;13.362;2022-09-09T14:51:38;24.20;99.90
37268;DHT22;23154;52.542;13.362;2022-09-09T14:54:04;24.00;99.90
37268;DHT22;23154;52.542;13.362;2022-09-09T14:56:32;23.70;99.90
37268;DHT22;23154;52.542;13.362;2022-09-09T14:58:59;23.40;99.90
37268;DHT22;23154;52.542;13.362;2022-09-09T15:01:29;23.20;99.90
37268;DHT22;23154;52.542;13.362;2022-09-09T15:04:03;23.20;99.90
37268;DHT22;23154;52.542;13.362;2022-09-09T15:06:33;23.20;99.90
37268;DHT22;23154;52.542;13.362;2022-09-09T15:08:59;23.10;99.90
37268;DHT22;23154;52.542;13.362;2022-09-09T15:11:30;23.20;99.90
37268;DHT22;23154;52.542;13.362;2022-09-09T15:13:57;23.40;99.90
37268;DHT22;23154;52.542;13.362;2022-09-09T15:16:26;23.70;99.90
37268;DHT22;23154;52.542;13.362;2022-09-09T15:18:54;23.70;99.90
37268;DHT22;23154;52.542;13.362;2022-09-09T15:21:22;24.00;99.90
37268;DHT22;23154;52.542;13.362;2022-09-09T15:23:48;25.00;99.90
37268;DHT22;23154;52.542;13.362;2022-09-09T15:26:15;25.30;99.90
37268;DHT22;23154;52.542;13.362;2022-09-09T15:28:41;25.30;99.90
37268;DHT22;23154;52.542;13.362;2022-09-09T15:31:14;25.20;99.90
37268;DHT22;23154;52.542;13.362;2022-09-09T15:33:41;24.60;99.90
37268;DHT22;23154;52.542;13.362;2022-09-09T15:38:42;23.50;99.90
37268;DHT22;23154;52.542;13.362;2022-09-09T15:41:10;23.50;99.90
37268;DHT22;23154;52.542;13.362;2022-09-09T15:43:35;23.50;99.90
37268;DHT22;23154;52.542;13.362;2022-09-09T15:46:23;23.40;99.90
37268;DHT22;23154;52.542;13.362;2022-09-09T15:48:55;23.30;99.90
37268;DHT22;23154;52.542;13.362;2022-09-09T15:51:21;23.00;99.90
37268;DHT22;23154;52.542;13.362;2022-09-09T15:53:49;22.80;99.90
37268;DHT22;23154;52.542;13.362;2022-09-09T15:56:18;22.60;99.90
37268;DHT22;23154;52.542;13.362;2022-09-09T15:58:43;22.50;99.90
37268;DHT22;23154;52.542;13.362;2022-09-09T16:01:10;22.40;99.90
37268;DHT22;23154;52.542;13.362;2022-09-09T16:03:40;22.20;99.90
37268;DHT22;23154;52.542;13.362;2022-09-09T16:06:12;22.10;99.90
37268;DHT22;23154;52.542;13.362;2022-09-09T16:08:41;21.90;99.90
37268;DHT22;23154;52.542;13.362;2022-09-09T16:11:13;21.80;99.90
37268;DHT22;23154;52.542;13.362;2022-09-09T16:13:41;21.80;99.90
37268;DHT22;23154;52.542;13.362;2022-09-09T16:16:08;21.70;99.90
37268;DHT22;23154;52.542;13.362;2022-09-09T16:18:39;21.70;99.90
37268;DHT22;23154;52.542;13.362;2022-09-09T16:21:06;21.60;99.90
37268;DHT22;23154;52.542;13.362;2022-09-09T16:23:34;21.50;99.90
37268;DHT22;23154;52.542;13.362;2022-09-09T16:26:00;21.50;99.90
37268;DHT22;23154;52.542;13.362;2022-09-09T16:28:26;21.50;99.90
37268;DHT22;23154;52.542;13.362;2022-09-09T16:30:52;21.50;99.90
37268;DHT22;23154;52.542;13.362;2022-09-09T16:33:18;21.40;99.90
37268;DHT22;23154;52.542;13.362;2022-09-09T16:35:44;21.40;99.90
37268;DHT22;23154;52.542;13.362;2022-09-09T16:38:10;21.40;99.90
37268;DHT22;23154;52.542;13.362;2022-09-09T16:40:36;21.40;99.90
37268;DHT22;23154;52.542;13.362;2022-09-09T16:43:05;21.40;99.90
37268;DHT22;23154;52.542;13.362;2022-09-09T16:45:31;21.40;99.90
37268;DHT22;23154;52.542;13.362;2022-09-09T16:47:58;21.40;99.90
37268;DHT22;23154;52.542;13.362;2022-09-09T16:50:26;21.40;99.90
37268;DHT22;23154;52.542;13.362;2022-09-09T16:52:52;21.30;99.90
37268;DHT22;23154;52.542;13.362;2022-09-09T16:55:17;21.20;99.90
37268;DHT22;23154;52.542;13.362;2022-09-09T16:57:46;21.20;99.90
37268;DHT22;23154;52.542;13.362;2022-09-09T17:00:14;21.10;99.90
37268;DHT22;23154;52.542;13.362;2022-09-09T17:02:42;21.00;99.90
37268;DHT22;23154;52.542;13.362;2022-09-09T17:05:07;20.90;99.90
37268;DHT22;23154;52.542;13.362;2022-09-09T17:07:33;20.90;99.90
37268;DHT22;23154;52.542;13.362;2022-09-09T17:09:58;20.70;99.90
37268;DHT22;23154;52.542;13.362;2022-09-09T17:12:24;20.60;99.90
37268;DHT22;23154;52.542;13.362;2022-09-09T17:14:50;20.50;99.90
37268;DHT22;23154;52.542;13.362;2022-09-09T17:17:16;20.30;99.90
37268;DHT22;23154;52.542;13.362;2022-09-09T17:19:42;20.20;99.90
37268;DHT22;23154;52.542;13.362;2022-09-09T17:22:08;20.10;99.90
37268;DHT22;23154;52.542;13.362;2022-09-09T17:24:34;20.00;99.90
37268;DHT22;23154;52.542;13.362;2022-09-09T17:27:00;19.90;99.90
37268;DHT22;23154;52.542;13.362;2022-09-09T17:29:27;19.80;99.90
37268;DHT22;23154;52.542;13.362;2022-09-09T17:31:53;19.90;99.90
37268;DHT22;23154;52.542;13.362;2022-09-09T17:34:20;19.80;99.90
37268;DHT22;23154;52.542;13.362;2022-09-09T17:36:46;19.90;99.90
37268;DHT22;23154;52.542;13.362;2022-09-09T17:39:11;19.80;99.90
37268;DHT22;23154;52.542;13.362;2022-09-09T17:41:39;19.70;99.90